sensor_id;sensor_type;location;lat;lon;timestamp;pressure;altitude;pressure_sealevel;temperature;humidity
13029;BME280;6581;42.662;23.402;2022-10-30T00:00:55;96129.97;;;10.04;80.45
13029;BME280;6581;42.662;23.402;2022-10-30T00:03:22;96124.47;;;9.97;80.60
13029;BME280;6581;42.662;23.402;2022-10-30T00:05:50;96133.50;;;9.96;80.66
13029;BME280;6581;42.662;23.402;2022-10-30T00:08:18;96134.59;;;9.95;80.90
13029;BME280;6581;42.662;23.402;2022-10-30T00:10:47;96129.31;;;9.95;80.21
13029;BME280;6581;42.662;23.402;2022-10-30T00:13:16;96124.78;;;9.95;80.59
13029;BME280;6581;42.662;23.402;2022-10-30T00:15:46;96124.00;;;9.95;80.73
13029;BME280;6581;42.662;23.402;2022-10-30T00:18:14;96124.00;;;9.95;80.52
13029;BME280;6581;42.662;23.402;2022-10-30T00:20:41;96130.06;;;9.95;80.55
13029;BME280;6581;42.662;23.402;2022-10-30T00:23:08;96131.63;;;9.96;80.46
13029;BME280;6581;42.662;23.402;2022-10-30T00:25:35;96130.44;;;9.94;80.35
13029;BME280;6581;42.662;23.402;2022-10-30T00:28:05;96117.53;;;9.92;81.05
13029;BME280;6581;42.662;23.402;2022-10-30T00:30:33;96118.72;;;9.95;80.86
13029;BME280;6581;42.662;23.402;2022-10-30T00:33:00;96121.25;;;9.91;81.17
13029;BME280;6581;42.662;23.402;2022-10-30T00:35:28;96126.91;;;9.90;80.87
13029;BME280;6581;42.662;23.402;2022-10-30T00:37:55;96126.91;;;9.90;80.56
13029;BME280;6581;42.662;23.402;2022-10-30T00:40:22;96117.63;;;9.84;81.25
13029;BME280;6581;42.662;23.402;2022-10-30T00:42:49;96120.50;;;9.78;81.47
13029;BME280;6581;42.662;23.402;2022-10-30T00:45:18;96114.00;;;9.76;81.43
13029;BME280;6581;42.662;23.402;2022-10-30T00:47:50;96117.97;;;9.70;81.52
13029;BME280;6581;42.662;23.402;2022-10-30T00:50:21;96115.88;;;9.63;82.31
13029;BME280;6581;42.662;23.402;2022-10-30T00:52:53;96123.03;;;9.63;82.38
13029;BME280;6581;42.662;23.402;2022-10-30T00:55:24;96122.50;;;9.57;83.23
13029;BME280;6581;42.662;23.402;2022-10-30T00:57:53;96118.31;;;9.56;83.16
13029;BME280;6581;42.662;23.402;2022-10-30T01:00:23;96119.59;;;9.50;83.40
13029;BME280;6581;42.662;23.402;2022-10-30T01:02:53;96117.94;;;9.46;83.05
13029;BME280;6581;42.662;23.402;2022-10-30T01:05:48;96105.63;;;9.38;83.33
13029;BME280;6581;42.662;23.402;2022-10-30T01:08:18;96108.69;;;9.40;83.62
13029;BME280;6581;42.662;23.402;2022-10-30T01:10:47;96113.34;;;9.43;83.47
13029;BME280;6581;42.662;23.402;2022-10-30T01:13:14;96098.44;;;9.38;83.72
13029;BME280;6581;42.662;23.402;2022-10-30T01:15:54;96100.31;;;9.38;83.42
13029;BME280;6581;42.662;23.402;2022-10-30T01:18:34;96094.03;;;9.30;83.60
13029;BME280;6581;42.662;23.402;2022-10-30T01:21:18;96085.75;;;9.19;83.99
13029;BME280;6581;42.662;23.402;2022-10-30T01:23:59;96083.00;;;9.16;84.62
13029;BME280;6581;42.662;23.402;2022-10-30T01:26:37;96078.94;;;9.18;84.65
13029;BME280;6581;42.662;23.402;2022-10-30T01:29:12;96076.94;;;9.15;84.80
13029;BME280;6581;42.662;23.402;2022-10-30T01:32:01;96083.31;;;9.14;84.92
13029;BME280;6581;42.662;23.402;2022-10-30T01:34:42;96086.72;;;9.03;84.93
13029;BME280;6581;42.662;23.402;2022-10-30T01:37:15;96090.00;;;8.87;85.04
13029;BME280;6581;42.662;23.402;2022-10-30T01:39:45;96086.53;;;8.75;85.60
13029;BME280;6581;42.662;23.402;2022-10-30T01:42:44;96082.00;;;8.75;85.77
13029;BME280;6581;42.662;23.402;2022-10-30T01:45:19;96075.97;;;8.75;85.94
13029;BME280;6581;42.662;23.402;2022-10-30T01:48:00;96077.38;;;8.72;85.83
13029;BME280;6581;42.662;23.402;2022-10-30T01:50:40;96080.44;;;8.62;86.43
13029;BME280;6581;42.662;23.402;2022-10-30T01:53:44;96071.81;;;8.53;87.37
13029;BME280;6581;42.662;23.402;2022-10-30T01:56:20;96066.03;;;8.60;87.53
13029;BME280;6581;42.662;23.402;2022-10-30T01:59:06;96069.09;;;8.62;87.36
13029;BME280;6581;42.662;23.402;2022-10-30T02:01:36;96065.47;;;8.66;87.38
13029;BME280;6581;42.662;23.402;2022-10-30T02:04:07;96071.09;;;8.65;87.59
13029;BME280;6581;42.662;23.402;2022-10-30T02:06:35;96064.50;;;8.71;87.18
13029;BME280;6581;42.662;23.402;2022-10-30T02:09:04;96058.03;;;8.80;87.08
13029;BME280;6581;42.662;23.402;2022-10-30T02:11:33;96064.75;;;8.78;86.61
13029;BME280;6581;42.662;23.402;2022-10-30T02:14:29;96065.19;;;8.80;86.46
13029;BME280;6581;42.662;23.402;2022-10-30T02:17:00;96068.59;;;8.80;86.37
13029;BME280;6581;42.662;23.402;2022-10-30T02:19:30;96060.56;;;8.77;86.34
13029;BME280;6581;42.662;23.402;2022-10-30T02:21:59;96060.75;;;8.72;86.55
13029;BME280;6581;42.662;23.402;2022-10-30T02:24:26;96063.53;;;8.75;86.83
13029;BME280;6581;42.662;23.402;2022-10-30T02:26:53;96062.00;;;8.74;86.32
13029;BME280;6581;42.662;23.402;2022-10-30T02:29:21;96069.34;;;8.69;86.29
13029;BME280;6581;42.662;23.402;2022-10-30T02:31:48;96065.72;;;8.73;86.53
13029;BME280;6581;42.662;23.402;2022-10-30T02:34:16;96067.38;;;8.66;86.50
13029;BME280;6581;42.662;23.402;2022-10-30T02:36:43;96061.59;;;8.52;87.35
13029;BME280;6581;42.662;23.402;2022-10-30T02:39:11;96065.56;;;8.58;86.94
13029;BME280;6581;42.662;23.402;2022-10-30T02:41:38;96055.34;;;8.56;87.08
13029;BME280;6581;42.662;23.402;2022-10-30T02:44:05;96053.78;;;8.55;86.89
13029;BME280;6581;42.662;23.402;2022-10-30T02:46:34;96056.13;;;8.57;87.21
13029;BME280;6581;42.662;23.402;2022-10-30T02:49:01;96053.66;;;8.52;87.49
13029;BME280;6581;42.662;23.402;2022-10-30T02:51:30;96060.94;;;8.55;86.91
13029;BME280;6581;42.662;23.402;2022-10-30T02:53:58;96064.88;;;8.49;87.55
13029;BME280;6581;42.662;23.402;2022-10-30T02:56:26;96060.03;;;8.51;87.14
13029;BME280;6581;42.662;23.402;2022-10-30T02:58:54;96066.09;;;8.51;86.70
13029;BME280;6581;42.662;23.402;2022-10-30T03:01:21;96069.94;;;8.54;86.50
13029;BME280;6581;42.662;23.402;2022-10-30T03:03:52;96076.59;;;8.39;87.54
13029;BME280;6581;42.662;23.402;2022-10-30T03:06:19;96071.66;;;8.37;87.73
13029;BME280;6581;42.662;23.402;2022-10-30T03:09:10;96073.22;;;8.38;87.80
13029;BME280;6581;42.662;23.402;2022-10-30T03:11:39;96085.63;;;8.38;88.17
13029;BME280;6581;42.662;23.402;2022-10-30T03:14:06;96084.50;;;8.39;87.91
13029;BME280;6581;42.662;23.402;2022-10-30T03:16:35;96087.38;;;8.34;88.30
13029;BME280;6581;42.662;23.402;2022-10-30T03:19:03;96076.97;;;8.29;88.95
13029;BME280;6581;42.662;23.402;2022-10-30T03:21:32;96097.72;;;8.39;88.91
13029;BME280;6581;42.662;23.402;2022-10-30T03:23:59;96082.22;;;8.37;89.29
13029;BME280;6581;42.662;23.402;2022-10-30T03:26:26;96080.34;;;8.38;89.01
13029;BME280;6581;42.662;23.402;2022-10-30T03:29:01;96077.56;;;8.34;89.17
13029;BME280;6581;42.662;23.402;2022-10-30T03:31:29;96077.78;;;8.29;89.76
13029;BME280;6581;42.662;23.402;2022-10-30T03:34:13;96077.44;;;8.31;89.44
13029;BME280;6581;42.662;23.402;2022-10-30T03:36:41;96073.88;;;8.27;89.04
13029;BME280;6581;42.662;23.402;2022-10-30T03:39:09;96072.22;;;8.22;89.56
13029;BME280;6581;42.662;23.402;2022-10-30T03:41:36;96076.81;;;8.25;89.05
13029;BME280;6581;42.662;23.402;2022-10-30T03:44:05;96074.41;;;8.20;89.18
13029;BME280;6581;42.662;23.402;2022-10-30T03:46:32;96074.44;;;8.12;90.01
13029;BME280;6581;42.662;23.402;2022-10-30T03:49:26;96073.38;;;8.13;90.08
13029;BME280;6581;42.662;23.402;2022-10-30T03:51:54;96071.69;;;8.08;90.47
13029;BME280;6581;42.662;23.402;2022-10-30T03:54:47;96074.78;;;8.10;90.28
13029;BME280;6581;42.662;23.402;2022-10-30T03:57:40;96069.16;;;8.12;90.27
13029;BME280;6581;42.662;23.402;2022-10-30T04:00:17;96069.81;;;8.09;90.19
13029;BME280;6581;42.662;23.402;2022-10-30T04:03:05;96065.31;;;8.09;90.20
13029;BME280;6581;42.662;23.402;2022-10-30T04:05:33;96068.94;;;8.05;90.55
13029;BME280;6581;42.662;23.402;2022-10-30T04:08:04;96059.91;;;8.06;90.47
13029;BME280;6581;42.662;23.402;2022-10-30T04:10:57;96062.75;;;8.00;90.30
13029;BME280;6581;42.662;23.402;2022-10-30T04:13:25;96063.72;;;7.96;90.92
13029;BME280;6581;42.662;23.402;2022-10-30T04:16:19;96066.34;;;7.96;91.27
13029;BME280;6581;42.662;23.402;2022-10-30T04:19:12;96064.03;;;7.94;91.86
13029;BME280;6581;42.662;23.402;2022-10-30T04:21:39;96064.34;;;7.93;94.25
13029;BME280;6581;42.662;23.402;2022-10-30T04:24:08;96053.22;;;7.87;94.04
13029;BME280;6581;42.662;23.402;2022-10-30T04:26:36;96063.25;;;7.94;94.57
13029;BME280;6581;42.662;23.402;2022-10-30T04:29:03;96066.41;;;7.87;94.46
13029;BME280;6581;42.662;23.402;2022-10-30T04:31:57;96070.09;;;7.66;92.46
13029;BME280;6581;42.662;23.402;2022-10-30T04:34:25;96073.72;;;7.52;91.72
13029;BME280;6581;42.662;23.402;2022-10-30T04:36:52;96068.50;;;7.44;91.25
13029;BME280;6581;42.662;23.402;2022-10-30T04:39:20;96072.09;;;7.39;91.72
13029;BME280;6581;42.662;23.402;2022-10-30T04:41:51;96070.72;;;7.33;92.08
13029;BME280;6581;42.662;23.402;2022-10-30T04:44:24;96079.31;;;7.22;92.14
13029;BME280;6581;42.662;23.402;2022-10-30T04:46:54;96073.59;;;7.11;92.03
13029;BME280;6581;42.662;23.402;2022-10-30T04:49:22;96075.81;;;7.00;92.63
13029;BME280;6581;42.662;23.402;2022-10-30T04:51:49;96073.53;;;6.90;93.65
13029;BME280;6581;42.662;23.402;2022-10-30T04:54:17;96085.28;;;6.93;93.71
13029;BME280;6581;42.662;23.402;2022-10-30T04:56:45;96083.31;;;6.81;94.55
13029;BME280;6581;42.662;23.402;2022-10-30T04:59:13;96078.69;;;6.78;95.38
13029;BME280;6581;42.662;23.402;2022-10-30T05:01:40;96083.31;;;6.81;95.37
13029;BME280;6581;42.662;23.402;2022-10-30T05:04:07;96086.25;;;6.80;95.47
13029;BME280;6581;42.662;23.402;2022-10-30T05:06:37;96088.28;;;6.83;95.53
13029;BME280;6581;42.662;23.402;2022-10-30T05:09:04;96080.84;;;6.76;96.45
13029;BME280;6581;42.662;23.402;2022-10-30T05:11:35;96074.94;;;6.79;96.10
13029;BME280;6581;42.662;23.402;2022-10-30T05:14:02;96090.28;;;6.86;95.99
13029;BME280;6581;42.662;23.402;2022-10-30T05:16:29;96090.75;;;6.71;96.48
13029;BME280;6581;42.662;23.402;2022-10-30T05:18:58;96094.63;;;6.73;97.13
13029;BME280;6581;42.662;23.402;2022-10-30T05:21:25;96097.56;;;6.72;97.07
13029;BME280;6581;42.662;23.402;2022-10-30T05:23:54;96098.19;;;6.77;96.76
13029;BME280;6581;42.662;23.402;2022-10-30T05:26:22;96090.16;;;6.74;96.84
13029;BME280;6581;42.662;23.402;2022-10-30T05:28:51;96095.69;;;6.81;97.63
13029;BME280;6581;42.662;23.402;2022-10-30T05:31:18;96098.34;;;6.81;97.13
13029;BME280;6581;42.662;23.402;2022-10-30T05:34:04;96095.97;;;6.88;97.41
13029;BME280;6581;42.662;23.402;2022-10-30T05:36:31;96099.38;;;6.88;97.58
13029;BME280;6581;42.662;23.402;2022-10-30T05:38:59;96093.66;;;6.95;98.10
13029;BME280;6581;42.662;23.402;2022-10-30T05:41:32;96106.97;;;6.98;98.22
13029;BME280;6581;42.662;23.402;2022-10-30T05:44:00;96098.25;;;7.06;98.37
13029;BME280;6581;42.662;23.402;2022-10-30T05:46:27;96098.09;;;7.11;97.79
13029;BME280;6581;42.662;23.402;2022-10-30T05:48:58;96092.97;;;7.15;98.33
13029;BME280;6581;42.662;23.402;2022-10-30T05:51:28;96097.88;;;7.25;98.52
13029;BME280;6581;42.662;23.402;2022-10-30T05:54:01;96093.34;;;7.34;98.48
13029;BME280;6581;42.662;23.402;2022-10-30T05:56:29;96088.22;;;7.46;98.37
13029;BME280;6581;42.662;23.402;2022-10-30T05:58:57;96088.94;;;7.55;97.92
13029;BME280;6581;42.662;23.402;2022-10-30T06:01:24;96086.84;;;7.70;97.10
13029;BME280;6581;42.662;23.402;2022-10-30T06:03:56;96091.28;;;7.78;96.26
13029;BME280;6581;42.662;23.402;2022-10-30T06:06:23;96082.25;;;7.87;96.11
13029;BME280;6581;42.662;23.402;2022-10-30T06:08:50;96084.47;;;7.97;96.06
13029;BME280;6581;42.662;23.402;2022-10-30T06:11:45;96088.66;;;7.98;95.73
13029;BME280;6581;42.662;23.402;2022-10-30T06:14:13;96095.75;;;8.07;96.24
13029;BME280;6581;42.662;23.402;2022-10-30T06:16:47;96095.84;;;8.19;96.18
13029;BME280;6581;42.662;23.402;2022-10-30T06:19:32;96099.19;;;8.28;95.86
13029;BME280;6581;42.662;23.402;2022-10-30T06:22:22;96084.28;;;8.32;95.54
13029;BME280;6581;42.662;23.402;2022-10-30T06:24:56;96085.28;;;8.39;95.66
13029;BME280;6581;42.662;23.402;2022-10-30T06:27:48;96081.38;;;8.45;95.12
13029;BME280;6581;42.662;23.402;2022-10-30T06:30:16;96089.88;;;8.51;95.31
13029;BME280;6581;42.662;23.402;2022-10-30T06:32:43;96088.34;;;8.62;95.23
13029;BME280;6581;42.662;23.402;2022-10-30T06:35:11;96094.78;;;8.73;94.78
13029;BME280;6581;42.662;23.402;2022-10-30T06:37:44;96092.47;;;8.72;94.90
13029;BME280;6581;42.662;23.402;2022-10-30T06:40:11;96095.75;;;8.69;94.56
13029;BME280;6581;42.662;23.402;2022-10-30T06:43:18;96091.41;;;8.85;93.75
13029;BME280;6581;42.662;23.402;2022-10-30T06:45:52;96090.41;;;8.89;93.22
13029;BME280;6581;42.662;23.402;2022-10-30T06:48:21;96090.66;;;8.97;92.99
13029;BME280;6581;42.662;23.402;2022-10-30T06:50:55;96090.69;;;9.09;92.75
13029;BME280;6581;42.662;23.402;2022-10-30T06:53:25;96101.63;;;9.19;92.90
13029;BME280;6581;42.662;23.402;2022-10-30T06:55:56;96101.16;;;9.17;92.22
13029;BME280;6581;42.662;23.402;2022-10-30T06:58:48;96110.44;;;9.23;92.50
13029;BME280;6581;42.662;23.402;2022-10-30T07:01:36;96106.13;;;9.31;92.30
13029;BME280;6581;42.662;23.402;2022-10-30T07:04:17;96098.09;;;9.40;91.85
13029;BME280;6581;42.662;23.402;2022-10-30T07:06:48;96110.38;;;9.56;91.06
13029;BME280;6581;42.662;23.402;2022-10-30T07:09:17;96114.22;;;9.59;90.98
13029;BME280;6581;42.662;23.402;2022-10-30T07:11:44;96103.41;;;9.64;91.09
13029;BME280;6581;42.662;23.402;2022-10-30T07:14:34;96108.59;;;9.72;89.80
13029;BME280;6581;42.662;23.402;2022-10-30T07:17:12;96098.88;;;9.76;89.92
13029;BME280;6581;42.662;23.402;2022-10-30T07:20:10;96099.53;;;9.86;88.90
13029;BME280;6581;42.662;23.402;2022-10-30T07:22:37;96094.38;;;9.89;89.14
13029;BME280;6581;42.662;23.402;2022-10-30T07:25:06;96090.50;;;9.99;88.63
13029;BME280;6581;42.662;23.402;2022-10-30T07:27:52;96092.66;;;10.09;88.10
13029;BME280;6581;42.662;23.402;2022-10-30T07:30:29;96096.53;;;10.23;87.99
13029;BME280;6581;42.662;23.402;2022-10-30T07:33:12;96080.41;;;10.29;88.20
13029;BME280;6581;42.662;23.402;2022-10-30T07:36:00;96079.25;;;10.42;87.79
13029;BME280;6581;42.662;23.402;2022-10-30T07:38:43;96085.56;;;10.49;87.83
13029;BME280;6581;42.662;23.402;2022-10-30T07:41:33;96082.06;;;10.61;87.53
13029;BME280;6581;42.662;23.402;2022-10-30T07:44:32;96086.53;;;10.73;88.78
13029;BME280;6581;42.662;23.402;2022-10-30T07:47:26;96083.41;;;10.83;88.06
13029;BME280;6581;42.662;23.402;2022-10-30T07:50:14;96088.53;;;10.91;88.06
13029;BME280;6581;42.662;23.402;2022-10-30T07:52:42;96072.34;;;11.08;87.18
13029;BME280;6581;42.662;23.402;2022-10-30T07:55:10;96073.34;;;11.20;85.67
13029;BME280;6581;42.662;23.402;2022-10-30T07:57:43;96066.44;;;11.31;83.99
13029;BME280;6581;42.662;23.402;2022-10-30T08:00:28;96069.00;;;11.43;83.80
13029;BME280;6581;42.662;23.402;2022-10-30T08:03:09;96061.38;;;11.57;83.82
13029;BME280;6581;42.662;23.402;2022-10-30T08:05:47;96056.84;;;11.73;83.71
13029;BME280;6581;42.662;23.402;2022-10-30T08:08:34;96057.91;;;11.88;83.97
13029;BME280;6581;42.662;23.402;2022-10-30T08:11:13;96056.28;;;11.99;82.96
13029;BME280;6581;42.662;23.402;2022-10-30T08:13:40;96053.47;;;12.11;82.43
13029;BME280;6581;42.662;23.402;2022-10-30T08:16:07;96054.22;;;12.27;81.35
13029;BME280;6581;42.662;23.402;2022-10-30T08:18:36;96044.44;;;12.31;81.07
13029;BME280;6581;42.662;23.402;2022-10-30T08:21:06;96042.09;;;12.30;80.59
13029;BME280;6581;42.662;23.402;2022-10-30T08:23:33;96036.50;;;12.35;80.26
13029;BME280;6581;42.662;23.402;2022-10-30T08:26:07;96041.28;;;12.45;80.38
13029;BME280;6581;42.662;23.402;2022-10-30T08:28:40;96037.00;;;12.60;79.66
13029;BME280;6581;42.662;23.402;2022-10-30T08:31:10;96043.22;;;12.67;79.15
13029;BME280;6581;42.662;23.402;2022-10-30T08:33:57;96034.59;;;12.74;79.46
13029;BME280;6581;42.662;23.402;2022-10-30T08:36:29;96034.28;;;12.79;78.57
13029;BME280;6581;42.662;23.402;2022-10-30T08:38:56;96037.59;;;12.92;78.07
13029;BME280;6581;42.662;23.402;2022-10-30T08:41:57;96044.41;;;13.12;77.80
13029;BME280;6581;42.662;23.402;2022-10-30T08:44:28;96031.91;;;13.16;78.45
13029;BME280;6581;42.662;23.402;2022-10-30T08:47:31;96039.06;;;13.35;78.47
13029;BME280;6581;42.662;23.402;2022-10-30T08:50:00;96035.03;;;13.44;78.15
13029;BME280;6581;42.662;23.402;2022-10-30T08:52:30;96031.00;;;13.54;78.15
13029;BME280;6581;42.662;23.402;2022-10-30T08:54:57;96031.53;;;13.63;77.36
13029;BME280;6581;42.662;23.402;2022-10-30T08:57:31;96021.38;;;13.72;76.96
13029;BME280;6581;42.662;23.402;2022-10-30T09:00:04;96017.00;;;13.83;76.01
13029;BME280;6581;42.662;23.402;2022-10-30T09:02:54;96016.16;;;13.79;75.82
13029;BME280;6581;42.662;23.402;2022-10-30T09:05:32;96021.28;;;13.91;75.82
13029;BME280;6581;42.662;23.402;2022-10-30T09:08:17;96019.13;;;14.00;75.85
13029;BME280;6581;42.662;23.402;2022-10-30T09:11:10;96019.97;;;14.08;75.31
13029;BME280;6581;42.662;23.402;2022-10-30T09:13:38;96017.84;;;14.20;75.13
13029;BME280;6581;42.662;23.402;2022-10-30T09:16:06;96016.41;;;14.30;74.38
13029;BME280;6581;42.662;23.402;2022-10-30T09:18:35;96009.88;;;14.20;74.64
13029;BME280;6581;42.662;23.402;2022-10-30T09:21:05;96004.13;;;14.18;74.79
13029;BME280;6581;42.662;23.402;2022-10-30T09:23:43;96003.50;;;14.32;75.08
13029;BME280;6581;42.662;23.402;2022-10-30T09:26:46;95997.56;;;14.42;74.18
13029;BME280;6581;42.662;23.402;2022-10-30T09:29:36;95998.44;;;14.53;74.80
13029;BME280;6581;42.662;23.402;2022-10-30T09:32:12;95994.78;;;14.69;74.57
13029;BME280;6581;42.662;23.402;2022-10-30T09:34:49;95996.47;;;14.84;74.52
13029;BME280;6581;42.662;23.402;2022-10-30T09:37:33;95990.09;;;14.95;73.53
13029;BME280;6581;42.662;23.402;2022-10-30T09:40:01;95987.44;;;14.99;73.12
13029;BME280;6581;42.662;23.402;2022-10-30T09:42:40;95978.78;;;15.09;72.38
13029;BME280;6581;42.662;23.402;2022-10-30T09:45:44;95975.84;;;15.21;72.14
13029;BME280;6581;42.662;23.402;2022-10-30T09:48:27;95971.34;;;15.36;71.67
13029;BME280;6581;42.662;23.402;2022-10-30T09:54:07;95957.44;;;15.64;70.44
13029;BME280;6581;42.662;23.402;2022-10-30T09:56:44;95962.44;;;15.72;70.12
13029;BME280;6581;42.662;23.402;2022-10-30T09:59:24;95958.28;;;15.82;69.11
13029;BME280;6581;42.662;23.402;2022-10-30T10:02:30;95952.25;;;15.95;69.07
13029;BME280;6581;42.662;23.402;2022-10-30T10:05:04;95947.72;;;16.07;68.98
13029;BME280;6581;42.662;23.402;2022-10-30T10:08:08;95945.47;;;16.23;67.63
13029;BME280;6581;42.662;23.402;2022-10-30T10:11:16;95937.13;;;16.42;67.52
13029;BME280;6581;42.662;23.402;2022-10-30T10:13:48;95939.06;;;16.52;66.78
13029;BME280;6581;42.662;23.402;2022-10-30T10:16:17;95924.22;;;16.62;66.27
13029;BME280;6581;42.662;23.402;2022-10-30T10:18:47;95918.50;;;16.67;64.72
13029;BME280;6581;42.662;23.402;2022-10-30T10:21:20;95919.63;;;16.73;65.14
13029;BME280;6581;42.662;23.402;2022-10-30T10:23:51;95909.34;;;16.86;64.00
13029;BME280;6581;42.662;23.402;2022-10-30T10:26:27;95900.16;;;16.90;64.21
13029;BME280;6581;42.662;23.402;2022-10-30T10:32:04;95898.22;;;17.15;62.44
13029;BME280;6581;42.662;23.402;2022-10-30T10:34:45;95892.84;;;17.33;61.62
13029;BME280;6581;42.662;23.402;2022-10-30T10:37:22;95890.53;;;17.49;61.51
13029;BME280;6581;42.662;23.402;2022-10-30T10:40:09;95888.53;;;17.75;60.94
13029;BME280;6581;42.662;23.402;2022-10-30T10:42:50;95880.06;;;17.94;59.12
13029;BME280;6581;42.662;23.402;2022-10-30T10:45:25;95880.38;;;18.06;58.58
13029;BME280;6581;42.662;23.402;2022-10-30T10:48:09;95878.75;;;18.23;59.17
13029;BME280;6581;42.662;23.402;2022-10-30T10:50:46;95869.50;;;18.35;56.71
13029;BME280;6581;42.662;23.402;2022-10-30T10:53:20;95874.38;;;18.50;56.33
13029;BME280;6581;42.662;23.402;2022-10-30T10:55:50;95867.41;;;18.64;55.91
13029;BME280;6581;42.662;23.402;2022-10-30T10:58:26;95863.16;;;18.70;54.41
13029;BME280;6581;42.662;23.402;2022-10-30T11:00:56;95867.00;;;18.69;54.52
13029;BME280;6581;42.662;23.402;2022-10-30T11:03:44;95863.09;;;18.77;54.01
13029;BME280;6581;42.662;23.402;2022-10-30T11:06:18;95857.22;;;18.89;53.14
13029;BME280;6581;42.662;23.402;2022-10-30T11:08:48;95848.75;;;18.94;52.65
13029;BME280;6581;42.662;23.402;2022-10-30T11:11:15;95844.88;;;18.98;52.88
13029;BME280;6581;42.662;23.402;2022-10-30T11:13:44;95842.38;;;19.18;52.14
13029;BME280;6581;42.662;23.402;2022-10-30T11:16:24;95836.25;;;19.18;52.13
13029;BME280;6581;42.662;23.402;2022-10-30T11:18:56;95829.56;;;19.33;51.70
13029;BME280;6581;42.662;23.402;2022-10-30T11:21:25;95821.41;;;19.47;51.00
13029;BME280;6581;42.662;23.402;2022-10-30T11:23:52;95818.97;;;19.56;51.35
13029;BME280;6581;42.662;23.402;2022-10-30T11:26:28;95817.69;;;19.68;50.47
13029;BME280;6581;42.662;23.402;2022-10-30T11:29:02;95816.41;;;19.79;49.29
13029;BME280;6581;42.662;23.402;2022-10-30T11:31:32;95805.75;;;19.99;49.01
13029;BME280;6581;42.662;23.402;2022-10-30T11:34:13;95802.50;;;20.11;48.40
13029;BME280;6581;42.662;23.402;2022-10-30T11:36:40;95802.78;;;20.20;48.56
13029;BME280;6581;42.662;23.402;2022-10-30T11:39:08;95802.72;;;20.24;47.71
13029;BME280;6581;42.662;23.402;2022-10-30T11:41:36;95783.03;;;20.30;45.99
13029;BME280;6581;42.662;23.402;2022-10-30T11:44:05;95789.53;;;20.33;45.74
13029;BME280;6581;42.662;23.402;2022-10-30T11:46:35;95792.34;;;20.49;45.57
13029;BME280;6581;42.662;23.402;2022-10-30T11:49:03;95792.13;;;20.63;44.20
13029;BME280;6581;42.662;23.402;2022-10-30T11:51:33;95787.03;;;20.69;43.96
13029;BME280;6581;42.662;23.402;2022-10-30T11:54:01;95789.63;;;20.76;43.55
13029;BME280;6581;42.662;23.402;2022-10-30T11:56:30;95785.69;;;20.81;43.49
13029;BME280;6581;42.662;23.402;2022-10-30T11:59:00;95783.97;;;20.90;43.16
13029;BME280;6581;42.662;23.402;2022-10-30T12:01:33;95779.69;;;20.93;42.19
13029;BME280;6581;42.662;23.402;2022-10-30T12:04:13;95776.47;;;21.01;42.18
13029;BME280;6581;42.662;23.402;2022-10-30T12:06:41;95767.38;;;21.15;42.19
13029;BME280;6581;42.662;23.402;2022-10-30T12:09:12;95762.25;;;21.40;41.44
13029;BME280;6581;42.662;23.402;2022-10-30T12:11:41;95772.84;;;21.51;40.96
13029;BME280;6581;42.662;23.402;2022-10-30T12:14:15;95766.66;;;21.70;40.75
13029;BME280;6581;42.662;23.402;2022-10-30T12:16:47;95766.66;;;21.70;40.28
13029;BME280;6581;42.662;23.402;2022-10-30T12:19:15;95764.81;;;21.67;40.48
13029;BME280;6581;42.662;23.402;2022-10-30T12:21:45;95764.75;;;21.71;39.45
13029;BME280;6581;42.662;23.402;2022-10-30T12:24:17;95752.78;;;21.72;39.71
13029;BME280;6581;42.662;23.402;2022-10-30T12:26:47;95749.44;;;21.84;39.46
13029;BME280;6581;42.662;23.402;2022-10-30T12:29:16;95751.03;;;21.81;39.05
13029;BME280;6581;42.662;23.402;2022-10-30T12:31:51;95738.47;;;21.91;38.87
13029;BME280;6581;42.662;23.402;2022-10-30T12:34:29;95738.16;;;21.89;38.76
13029;BME280;6581;42.662;23.402;2022-10-30T12:37:07;95736.41;;;21.98;38.53
13029;BME280;6581;42.662;23.402;2022-10-30T12:39:46;95742.00;;;22.07;37.80
13029;BME280;6581;42.662;23.402;2022-10-30T12:42:16;95730.34;;;22.10;37.74
13029;BME280;6581;42.662;23.402;2022-10-30T12:44:52;95732.53;;;22.16;37.50
13029;BME280;6581;42.662;23.402;2022-10-30T12:47:27;95735.25;;;22.16;37.29
13029;BME280;6581;42.662;23.402;2022-10-30T12:49:59;95740.13;;;22.21;36.78
13029;BME280;6581;42.662;23.402;2022-10-30T12:52:33;95728.84;;;22.26;36.96
13029;BME280;6581;42.662;23.402;2022-10-30T12:55:11;95731.72;;;22.35;36.79
13029;BME280;6581;42.662;23.402;2022-10-30T12:57:45;95727.75;;;22.39;36.97
13029;BME280;6581;42.662;23.402;2022-10-30T13:00:15;95731.78;;;22.47;37.15
13029;BME280;6581;42.662;23.402;2022-10-30T13:02:51;95723.56;;;22.67;37.33
13029;BME280;6581;42.662;23.402;2022-10-30T13:05:25;95731.25;;;22.85;37.29
13029;BME280;6581;42.662;23.402;2022-10-30T13:08:00;95714.66;;;22.99;36.39
13029;BME280;6581;42.662;23.402;2022-10-30T13:10:33;95720.97;;;23.09;35.55
13029;BME280;6581;42.662;23.402;2022-10-30T13:13:27;95713.81;;;23.15;35.12
13029;BME280;6581;42.662;23.402;2022-10-30T13:16:00;95706.94;;;23.26;35.42
13029;BME280;6581;42.662;23.402;2022-10-30T13:18:29;95706.97;;;23.39;35.98
13029;BME280;6581;42.662;23.402;2022-10-30T13:21:19;95708.16;;;23.38;35.39
13029;BME280;6581;42.662;23.402;2022-10-30T13:23:51;95711.97;;;23.40;35.50
13029;BME280;6581;42.662;23.402;2022-10-30T13:26:34;95702.53;;;23.32;34.38
13029;BME280;6581;42.662;23.402;2022-10-30T13:29:22;95712.28;;;23.42;34.78
13029;BME280;6581;42.662;23.402;2022-10-30T13:32:04;95707.19;;;23.32;34.50
13029;BME280;6581;42.662;23.402;2022-10-30T13:34:42;95708.91;;;23.26;34.99
13029;BME280;6581;42.662;23.402;2022-10-30T13:37:17;95706.09;;;23.29;35.39
13029;BME280;6581;42.662;23.402;2022-10-30T13:39:58;95707.63;;;23.43;34.81
13029;BME280;6581;42.662;23.402;2022-10-30T13:42:45;95706.69;;;23.50;34.77
13029;BME280;6581;42.662;23.402;2022-10-30T13:48:49;95698.94;;;23.64;34.16
13029;BME280;6581;42.662;23.402;2022-10-30T13:51:33;95696.44;;;23.82;34.09
13029;BME280;6581;42.662;23.402;2022-10-30T13:54:09;95690.03;;;23.89;33.58